Time;durP1;ratioP1;P1;durP2;ratioP2;P2;SDS_P1;SDS_P2;PMS_P1;PMS_P2;Temp;Humidity;BMP_temperature;BMP_pressure;BME280_temperature;BME280_humidity;BME280_pressure;Samples;Min_cycle;Max_cycle;Signal;HPM_P1;HPM_P2
2022/02/12 00:01:04;;;;;;;17.67;6.20;;;0.00;99.90;;;;;;5033542;28;20202;-61
2022/02/12 00:03:31;;;;;;;17.77;5.55;;;0.00;99.90;;;;;;5033442;28;20198;-61
2022/02/12 00:05:58;;;;;;;13.43;5.45;;;0.00;99.90;;;;;;5033335;28;20198;-62
2022/02/12 00:08:26;;;;;;;7.95;4.30;;;0.00;99.90;;;;;;5033604;28;20207;-61
2022/02/12 00:10:53;;;;;;;7.15;4.60;;;-0.10;99.90;;;;;;5033258;28;20209;-61
2022/02/12 00:13:20;;;;;;;10.75;4.70;;;-0.10;99.90;;;;;;5033356;28;20225;-62
2022/02/12 00:15:48;;;;;;;12.90;5.15;;;-0.10;99.90;;;;;;5033208;28;20210;-61
2022/02/12 00:18:16;;;;;;;12.07;5.72;;;-0.10;99.90;;;;;;5033340;28;20703;-61
2022/02/12 00:20:43;;;;;;;17.17;6.10;;;-0.10;99.90;;;;;;5033702;28;20198;-60
2022/02/12 00:23:10;;;;;;;8.48;5.25;;;-0.20;99.90;;;;;;5033278;28;20214;-60
2022/02/12 00:25:38;;;;;;;8.43;5.00;;;-0.20;99.90;;;;;;5036654;28;20214;-60
2022/02/12 00:28:06;;;;;;;13.35;5.88;;;-0.20;99.90;;;;;;5037911;28;20297;-61
2022/02/12 00:30:33;;;;;;;10.68;5.50;;;-0.20;99.90;;;;;;5037127;28;20697;-61
2022/02/12 00:33:01;;;;;;;9.65;5.35;;;-0.20;99.90;;;;;;5037519;28;20662;-60
2022/02/12 00:35:28;;;;;;;10.35;4.78;;;-0.20;99.90;;;;;;5038145;28;20240;-62
2022/02/12 00:37:56;;;;;;;13.18;5.85;;;-0.20;99.90;;;;;;5037606;28;20629;-61
2022/02/12 00:40:25;;;;;;;13.20;5.60;;;-0.20;99.90;;;;;;5037789;28;20210;-61
2022/02/12 00:42:52;;;;;;;10.43;5.35;;;-0.20;99.90;;;;;;5037416;28;20260;-60
2022/02/12 00:45:19;;;;;;;18.00;5.93;;;-0.20;99.90;;;;;;5037379;28;20226;-61
2022/02/12 00:47:46;;;;;;;9.27;5.25;;;-0.30;99.90;;;;;;5036828;28;20206;-61
2022/02/12 00:50:15;;;;;;;11.93;5.28;;;-0.30;99.90;;;;;;5036845;28;20619;-61
2022/02/12 00:52:42;;;;;;;17.38;4.80;;;-0.30;99.90;;;;;;5036871;28;20209;-61
2022/02/12 00:55:09;;;;;;;12.05;5.95;;;-0.30;99.90;;;;;;5036911;28;20230;-61
2022/02/12 00:57:36;;;;;;;14.32;5.65;;;-0.30;99.90;;;;;;5036906;28;20213;-61
2022/02/12 01:00:06;;;;;;;15.02;5.50;;;-0.20;99.90;;;;;;5036615;28;20210;-61
2022/02/12 01:02:33;;;;;;;11.32;5.10;;;-0.20;99.90;;;;;;5036380;28;20584;-61
2022/02/12 01:05:00;;;;;;;11.73;4.93;;;-0.20;99.90;;;;;;5036680;28;20225;-61
2022/02/12 01:07:28;;;;;;;7.05;4.28;;;-0.20;99.90;;;;;;5037045;28;20210;-61
2022/02/12 01:09:55;;;;;;;12.35;6.05;;;-0.30;99.90;;;;;;5036608;28;20602;-61
2022/02/12 01:12:22;;;;;;;12.35;4.20;;;-0.30;99.90;;;;;;5036194;28;20205;-61
2022/02/12 01:14:49;;;;;;;16.00;5.07;;;-0.30;99.90;;;;;;5036269;28;20233;-61
2022/02/12 01:17:16;;;;;;;8.18;5.35;;;-0.30;99.90;;;;;;5036404;28;20202;-62
2022/02/12 01:19:43;;;;;;;14.73;5.05;;;-0.30;99.90;;;;;;5036429;28;20205;-61
2022/02/12 01:22:10;;;;;;;7.25;4.78;;;-0.30;99.90;;;;;;5036392;28;20206;-61
2022/02/12 01:24:39;;;;;;;7.63;4.60;;;-0.30;99.90;;;;;;5035918;28;20613;-61
2022/02/12 01:27:06;;;;;;;10.50;4.60;;;-0.40;99.90;;;;;;5035890;28;20210;-61
2022/02/12 01:29:33;;;;;;;20.88;5.00;;;-0.40;99.90;;;;;;5035774;28;20693;-61
2022/02/12 01:32:04;;;;;;;6.90;4.35;;;-0.40;99.90;;;;;;5035935;28;20670;-60
2022/02/12 01:34:33;;;;;;;7.75;4.07;;;-0.40;99.90;;;;;;5036610;28;20229;-61
2022/02/12 01:37:01;;;;;;;12.32;5.00;;;-0.40;99.90;;;;;;5035870;28;20203;-61
2022/02/12 01:39:28;;;;;;;7.72;4.60;;;-0.40;99.90;;;;;;5036033;28;20206;-60
2022/02/12 01:41:56;;;;;;;6.88;4.50;;;-0.40;99.90;;;;;;5036196;28;20289;-61
2022/02/12 01:44:30;;;;;;;7.55;3.60;;;-0.40;99.90;;;;;;5035956;28;20218;-60
2022/02/12 01:46:57;;;;;;;6.63;3.95;;;-0.40;99.90;;;;;;5035795;28;20678;-61
2022/02/12 01:49:25;;;;;;;7.68;3.67;;;-0.40;99.90;;;;;;5035562;28;20559;-61
2022/02/12 01:51:53;;;;;;;15.18;4.30;;;-0.40;99.90;;;;;;5035843;28;20210;-61
2022/02/12 01:54:21;;;;;;;13.18;4.28;;;-0.40;99.90;;;;;;5035682;28;20218;-62
2022/02/12 01:56:49;;;;;;;7.65;3.80;;;-0.40;99.90;;;;;;5035368;28;20213;-61
2022/02/12 01:59:21;;;;;;;12.77;4.05;;;-0.50;99.90;;;;;;5035868;28;20206;-60
2022/02/12 02:01:48;;;;;;;15.73;3.90;;;-0.50;99.90;;;;;;5035523;28;20194;-61
2022/02/12 02:04:15;;;;;;;10.18;3.05;;;-0.40;99.90;;;;;;5035173;28;20694;-61
2022/02/12 02:06:43;;;;;;;7.30;3.38;;;-0.40;99.90;;;;;;5035432;28;20206;-61
2022/02/12 02:09:11;;;;;;;10.13;3.60;;;-0.30;99.90;;;;;;5035141;28;20213;-61
2022/02/12 02:11:38;;;;;;;12.30;4.80;;;-0.30;99.90;;;;;;5035229;28;20202;-62
2022/02/12 02:14:05;;;;;;;6.05;4.95;;;-0.30;99.90;;;;;;5035206;28;20296;-62
2022/02/12 02:16:34;;;;;;;7.75;3.58;;;-0.30;99.90;;;;;;5035210;28;20210;-61
2022/02/12 02:19:01;;;;;;;16.80;4.47;;;-0.30;99.90;;;;;;5035876;28;20213;-62
2022/02/12 02:21:29;;;;;;;15.15;4.20;;;-0.30;99.90;;;;;;5035226;28;20206;-61
2022/02/12 02:23:57;;;;;;;11.77;4.15;;;-0.40;99.90;;;;;;5035188;28;20230;-62
2022/02/12 02:26:24;;;;;;;11.40;4.43;;;-0.40;99.90;;;;;;5035373;28;20202;-61
2022/02/12 02:28:52;;;;;;;12.68;3.78;;;-0.50;99.90;;;;;;5035086;28;20202;-61
2022/02/12 02:31:19;;;;;;;17.15;4.53;;;-0.50;99.90;;;;;;5034970;28;20203;-61
2022/02/12 02:33:46;;;;;;;9.35;4.07;;;-0.50;99.90;;;;;;5034611;28;20226;-62
2022/02/12 02:36:14;;;;;;;10.55;4.63;;;-0.50;99.90;;;;;;5035434;28;20206;-62
2022/02/12 02:38:41;;;;;;;16.48;4.10;;;-0.50;99.90;;;;;;5035241;28;20217;-61
2022/02/12 02:41:09;;;;;;;12.23;4.47;;;-0.60;99.90;;;;;;5034604;28;20206;-61
2022/02/12 02:43:37;;;;;;;8.35;3.95;;;-0.60;99.90;;;;;;5034854;28;20245;-60
2022/02/12 02:46:04;;;;;;;6.22;3.47;;;-0.60;99.90;;;;;;5034951;28;20298;-61
2022/02/12 02:48:31;;;;;;;8.73;4.22;;;-0.60;99.90;;;;;;5034014;28;20211;-63
2022/02/12 02:56:28;;;;;;;13.75;4.43;;;-0.70;99.90;;;;;;5035181;28;20657;-61
2022/02/12 02:58:59;;;;;;;14.20;4.03;;;-0.60;99.90;;;;;;5035266;28;20205;-61
2022/02/12 03:01:28;;;;;;;8.23;4.43;;;-0.70;99.90;;;;;;5035079;28;20625;-61
2022/02/12 03:03:56;;;;;;;13.40;4.30;;;-0.70;99.90;;;;;;5034428;28;20268;-62
2022/02/12 03:06:26;;;;;;;10.10;4.65;;;-0.70;99.90;;;;;;5034288;28;20198;-61
2022/02/12 03:08:54;;;;;;;7.35;3.53;;;-0.70;99.90;;;;;;5034238;28;20229;-61
2022/02/12 03:11:21;;;;;;;12.40;3.75;;;-0.70;99.90;;;;;;5034279;28;20202;-61
2022/02/12 03:13:51;;;;;;;9.63;4.03;;;-0.60;99.90;;;;;;5033981;28;20226;-61
2022/02/12 03:16:18;;;;;;;13.38;4.72;;;-0.60;99.90;;;;;;5034188;28;20657;-61
2022/02/12 03:18:48;;;;;;;6.93;3.72;;;-0.60;99.90;;;;;;5034329;28;20210;-61
2022/02/12 03:21:16;;;;;;;8.70;3.97;;;-0.50;99.90;;;;;;5033742;28;20210;-61
2022/02/12 03:23:43;;;;;;;13.75;4.45;;;-0.50;99.90;;;;;;5033931;28;20245;-62
2022/02/12 03:26:11;;;;;;;13.00;3.90;;;-0.50;99.90;;;;;;5034996;28;20593;-62
2022/02/12 03:28:38;;;;;;;6.80;3.85;;;-0.50;99.90;;;;;;5034336;28;20207;-61
2022/02/12 03:31:07;;;;;;;9.75;4.38;;;-0.60;99.90;;;;;;5033860;28;20670;-62
2022/02/12 03:33:34;;;;;;;7.88;4.15;;;-0.60;99.90;;;;;;5033861;28;20222;-63
2022/02/12 03:36:01;;;;;;;12.45;4.10;;;-0.70;99.90;;;;;;5034148;28;20244;-62
2022/02/12 03:38:29;;;;;;;7.55;4.25;;;-0.70;99.90;;;;;;5034038;28;20260;-61
2022/02/12 03:41:00;;;;;;;12.20;5.60;;;-0.70;99.90;;;;;;5033942;28;20221;-62
2022/02/12 03:43:28;;;;;;;9.60;4.50;;;-0.70;99.90;;;;;;5033993;28;20193;-63
2022/02/12 03:45:57;;;;;;;9.02;4.20;;;-0.80;99.90;;;;;;5034098;28;20209;-62
2022/02/12 03:48:26;;;;;;;10.57;3.92;;;-0.80;99.90;;;;;;5034045;28;20704;-62
2022/02/12 03:50:53;;;;;;;8.65;4.32;;;-0.80;99.90;;;;;;5033985;28;20203;-63
2022/02/12 03:53:21;;;;;;;9.65;4.15;;;-0.80;99.90;;;;;;5033620;28;20574;-63
2022/02/12 03:55:49;;;;;;;11.32;4.20;;;-0.80;99.90;;;;;;5033856;28;20222;-62
2022/02/12 03:58:19;;;;;;;15.73;5.00;;;-0.80;99.90;;;;;;5033414;28;20209;-62
2022/02/12 04:00:49;;;;;;;7.13;3.70;;;-0.80;99.90;;;;;;5033827;28;20248;-63
2022/02/12 04:03:17;;;;;;;10.90;4.22;;;-0.80;99.90;;;;;;5033545;28;20222;-64
2022/02/12 04:09:20;;;;;;;15.98;4.55;;;-0.90;99.90;;;;;;5091614;27;20606;-63
2022/02/12 04:11:47;;;;;;;15.07;5.03;;;-0.90;99.90;;;;;;5090869;28;20238;-63
2022/02/12 04:14:14;;;;;;;13.57;5.22;;;-0.90;99.90;;;;;;5090415;28;20221;-63
2022/02/12 04:16:41;;;;;;;11.13;4.75;;;-0.90;99.90;;;;;;5090557;28;20283;-63
2022/02/12 04:19:08;;;;;;;15.45;6.07;;;-0.90;99.90;;;;;;5090798;28;20197;-63
2022/02/12 04:21:36;;;;;;;14.55;4.80;;;-0.80;99.90;;;;;;5101716;22;20230;-64
2022/02/12 04:24:03;;;;;;;12.18;3.90;;;-0.80;99.90;;;;;;5030773;28;20191;-65
2022/02/12 04:26:32;;;;;;;13.77;5.05;;;-0.80;99.90;;;;;;5030550;28;20224;-63
2022/02/12 04:28:59;;;;;;;13.90;4.38;;;-0.80;99.90;;;;;;5029877;28;20225;-63
2022/02/12 04:31:26;;;;;;;16.77;5.68;;;-0.80;99.90;;;;;;5029956;28;20233;-64
2022/02/12 04:33:53;;;;;;;11.20;3.95;;;-0.80;99.90;;;;;;5030196;28;20206;-64
2022/02/12 04:36:20;;;;;;;8.60;4.10;;;-0.80;99.90;;;;;;5030195;28;20229;-64
2022/02/12 04:38:47;;;;;;;13.52;4.82;;;-0.80;99.90;;;;;;5030073;28;20202;-64
2022/02/12 04:41:14;;;;;;;10.07;4.20;;;-0.80;99.90;;;;;;5029756;28;20667;-64
2022/02/12 04:43:42;;;;;;;14.20;4.90;;;-0.90;99.90;;;;;;5029728;28;20199;-64
2022/02/12 04:46:09;;;;;;;12.50;4.55;;;-0.90;99.90;;;;;;5029762;28;20225;-64
2022/02/12 04:48:36;;;;;;;11.55;5.13;;;-0.90;99.90;;;;;;5029546;28;20226;-64
2022/02/12 04:51:03;;;;;;;12.02;4.00;;;-0.80;99.90;;;;;;5029730;28;20202;-64
2022/02/12 04:53:30;;;;;;;9.32;4.60;;;-0.90;99.90;;;;;;5029628;28;20675;-64
2022/02/12 04:55:57;;;;;;;11.20;4.60;;;-0.90;99.90;;;;;;5029632;28;20671;-65
2022/02/12 04:58:24;;;;;;;9.55;3.63;;;-0.90;99.90;;;;;;5029458;28;20199;-64
2022/02/12 05:00:53;;;;;;;12.55;4.88;;;-0.90;99.90;;;;;;5029400;28;20207;-64
2022/02/12 05:03:20;;;;;;;5.20;3.83;;;-0.80;99.90;;;;;;5029305;28;20226;-64
2022/02/12 05:05:47;;;;;;;5.20;4.15;;;-0.80;99.90;;;;;;5029789;28;20213;-64
2022/02/12 05:08:14;;;;;;;12.70;4.75;;;-0.80;99.90;;;;;;5029802;28;20218;-64
2022/02/12 05:10:41;;;;;;;10.05;3.97;;;-0.90;99.90;;;;;;5029675;28;20552;-64
2022/02/12 05:13:08;;;;;;;9.73;4.32;;;-0.90;99.90;;;;;;5030081;28;20222;-64
2022/02/12 05:15:35;;;;;;;12.55;4.10;;;-0.90;99.90;;;;;;5029936;28;20633;-64
2022/02/12 05:18:04;;;;;;;12.55;4.03;;;-0.90;99.90;;;;;;5029303;28;20207;-64
2022/02/12 05:20:31;;;;;;;12.88;3.90;;;-0.90;99.90;;;;;;5017024;28;20203;-63
2022/02/12 05:22:58;;;;;;;11.93;4.80;;;-0.90;99.90;;;;;;5015882;28;20238;-64
2022/02/12 05:25:25;;;;;;;8.93;4.50;;;-0.90;99.90;;;;;;5016475;28;20214;-64
2022/02/12 05:27:52;;;;;;;11.00;3.97;;;-0.90;99.90;;;;;;5016068;28;20718;-63
2022/02/12 05:30:19;;;;;;;14.70;4.22;;;-0.90;99.90;;;;;;5016134;28;20698;-64
2022/02/12 05:32:46;;;;;;;8.40;3.40;;;-0.90;99.90;;;;;;5015772;28;20234;-64
2022/02/12 05:35:14;;;;;;;10.73;3.83;;;-0.90;99.90;;;;;;5016206;28;20207;-64
2022/02/12 05:37:41;;;;;;;11.98;5.43;;;-0.90;99.90;;;;;;5015537;28;20207;-64
2022/02/12 05:40:10;;;;;;;11.68;3.78;;;-0.90;99.90;;;;;;5015610;28;20283;-64
2022/02/12 05:42:37;;;;;;;11.57;5.03;;;-1.00;99.90;;;;;;5015777;28;20238;-64
2022/02/12 05:45:04;;;;;;;9.57;4.00;;;-1.00;99.90;;;;;;5015592;28;20203;-63
2022/02/12 05:47:31;;;;;;;5.03;3.58;;;-1.00;99.90;;;;;;5015759;28;20203;-64
2022/02/12 05:49:58;;;;;;;8.18;4.25;;;-1.00;99.90;;;;;;5015427;28;20207;-64
2022/02/12 05:52:27;;;;;;;7.07;3.60;;;-1.00;99.90;;;;;;5015627;28;20230;-64
2022/02/12 05:54:54;;;;;;;7.28;3.35;;;-1.00;99.90;;;;;;5015474;28;20675;-64
2022/02/12 05:57:21;;;;;;;10.57;4.25;;;-1.00;99.90;;;;;;5015183;28;20213;-64
2022/02/12 05:59:48;;;;;;;9.88;4.18;;;-1.00;99.90;;;;;;5015398;28;20203;-64
2022/02/12 06:02:15;;;;;;;6.47;3.72;;;-1.00;99.90;;;;;;5015375;28;20223;-64
2022/02/12 06:04:42;;;;;;;10.20;3.47;;;-1.00;99.90;;;;;;5015047;28;20210;-64
2022/02/12 06:07:10;;;;;;;10.48;3.83;;;-1.00;99.90;;;;;;5014972;28;20198;-64
2022/02/12 06:09:38;;;;;;;12.63;4.40;;;-1.00;99.90;;;;;;5015690;28;20227;-63
2022/02/12 06:12:06;;;;;;;12.25;3.83;;;-1.10;99.90;;;;;;5015175;28;20226;-63
2022/02/12 06:14:33;;;;;;;13.43;3.35;;;-1.00;99.90;;;;;;5015320;28;20226;-64
2022/02/12 06:17:00;;;;;;;7.43;4.03;;;-1.00;99.90;;;;;;5015050;28;20207;-63
2022/02/12 06:19:28;;;;;;;6.07;3.15;;;-1.00;99.90;;;;;;5014759;28;20579;-64
2022/02/12 06:21:55;;;;;;;8.10;3.90;;;-1.00;99.90;;;;;;5014640;28;20234;-64
2022/02/12 06:24:22;;;;;;;10.15;3.20;;;-1.00;99.90;;;;;;5014586;28;20207;-64
2022/02/12 06:26:57;;;;;;;14.18;3.80;;;-1.10;99.90;;;;;;5014857;28;20206;-64
2022/02/12 06:29:24;;;;;;;9.60;4.38;;;-1.10;99.90;;;;;;5014668;28;20238;-64
2022/02/12 06:31:52;;;;;;;17.88;4.85;;;-1.10;99.90;;;;;;5014300;28;20248;-63
2022/02/12 06:34:19;;;;;;;7.25;3.53;;;-1.00;99.90;;;;;;5014983;28;20202;-63
2022/02/12 06:36:46;;;;;;;12.25;3.95;;;-1.00;99.90;;;;;;5015009;28;20285;-63
2022/02/12 06:39:13;;;;;;;8.30;4.20;;;-1.00;99.90;;;;;;5014744;28;20199;-63
2022/02/12 06:41:41;;;;;;;9.50;4.00;;;-1.00;99.90;;;;;;5014551;28;20597;-63
2022/02/12 06:44:09;;;;;;;13.55;3.47;;;-1.00;99.90;;;;;;5014434;28;20570;-63
2022/02/12 06:46:36;;;;;;;10.88;3.88;;;-1.00;99.90;;;;;;5014713;28;20199;-63
2022/02/12 06:49:04;;;;;;;13.73;4.40;;;-0.90;99.90;;;;;;5014938;28;20688;-62
2022/02/12 06:51:31;;;;;;;12.15;5.68;;;-0.90;99.90;;;;;;5016800;28;20318;-62
2022/02/12 06:53:58;;;;;;;7.10;3.38;;;-0.80;99.90;;;;;;5015809;28;20203;-62
2022/02/12 06:56:25;;;;;;;12.63;4.10;;;-0.80;99.90;;;;;;5016834;28;20209;-62
2022/02/12 06:58:52;;;;;;;6.68;3.08;;;-0.80;99.90;;;;;;5016497;28;20294;-63
2022/02/12 07:01:23;;;;;;;4.65;2.80;;;-0.80;99.90;;;;;;5015814;28;20213;-63
2022/02/12 07:03:50;;;;;;;8.27;3.40;;;-0.80;99.90;;;;;;5015026;28;20227;-63
2022/02/12 07:06:17;;;;;;;8.70;3.83;;;-0.80;99.90;;;;;;5014881;28;20207;-63
2022/02/12 07:08:44;;;;;;;8.45;3.38;;;-0.70;99.90;;;;;;5014453;28;20230;-63
2022/02/12 07:11:11;;;;;;;6.70;4.57;;;-0.70;99.90;;;;;;5014628;28;20226;-63
2022/02/12 07:13:38;;;;;;;7.15;4.10;;;-0.70;99.90;;;;;;5014516;28;20198;-63
2022/02/12 07:16:06;;;;;;;7.30;4.18;;;-0.60;99.90;;;;;;5015165;28;20199;-63
2022/02/12 07:18:34;;;;;;;6.28;2.50;;;-0.60;99.90;;;;;;5015569;28;20199;-63
2022/02/12 07:21:01;;;;;;;13.63;5.03;;;-0.50;99.90;;;;;;5014482;28;20206;-63
2022/02/12 07:23:29;;;;;;;11.00;4.80;;;-0.40;99.90;;;;;;5014302;28;20246;-64
2022/02/12 07:25:56;;;;;;;7.20;3.50;;;-0.40;99.90;;;;;;5014280;28;20701;-63
2022/02/12 07:28:24;;;;;;;9.55;4.07;;;-0.30;99.90;;;;;;5014114;28;20219;-64
2022/02/12 07:30:51;;;;;;;6.63;3.15;;;-0.20;99.90;;;;;;5013951;28;20207;-63
2022/02/12 07:33:18;;;;;;;9.77;3.60;;;-0.10;99.90;;;;;;5013783;28;20653;-63
2022/02/12 07:35:49;;;;;;;7.70;4.22;;;0.00;99.90;;;;;;5013376;28;20199;-63
2022/02/12 07:38:17;;;;;;;6.32;3.40;;;0.10;99.90;;;;;;5013334;28;20219;-64
2022/02/12 07:40:44;;;;;;;13.30;3.75;;;0.20;99.90;;;;;;5013377;28;20250;-63
2022/02/12 07:43:11;;;;;;;6.22;3.60;;;0.30;99.90;;;;;;5013158;28;20219;-63
2022/02/12 07:45:38;;;;;;;10.52;4.03;;;0.40;99.90;;;;;;5013658;28;20218;-64
2022/02/12 07:48:06;;;;;;;14.38;4.43;;;0.50;99.90;;;;;;5013261;28;20620;-64
2022/02/12 07:50:33;;;;;;;8.80;3.25;;;0.60;99.90;;;;;;5013442;28;20575;-64
2022/02/12 07:53:01;;;;;;;9.07;3.95;;;0.70;99.90;;;;;;5013342;28;20588;-64
2022/02/12 07:55:30;;;;;;;10.63;3.92;;;0.80;99.90;;;;;;5013288;28;20199;-63
2022/02/12 07:57:58;;;;;;;7.72;3.25;;;0.90;99.90;;;;;;5013322;28;20210;-64
2022/02/12 08:00:25;;;;;;;16.27;4.38;;;0.90;99.90;;;;;;5013141;28;20195;-62
2022/02/12 08:02:54;;;;;;;12.82;4.20;;;1.00;99.90;;;;;;5013560;28;20625;-64
2022/02/12 08:05:21;;;;;;;8.38;3.03;;;1.10;99.90;;;;;;5013435;28;20289;-64
2022/02/12 08:07:48;;;;;;;8.82;3.30;;;1.20;99.90;;;;;;5014066;28;20214;-63
2022/02/12 08:13:02;;;;;;;7.47;3.38;;;1.40;99.90;;;;;;5014423;28;20241;-64
2022/02/12 08:15:30;;;;;;;6.93;3.30;;;1.40;99.90;;;;;;5014451;28;20609;-63
2022/02/12 08:17:57;;;;;;;10.90;4.00;;;1.50;99.90;;;;;;5014984;28;20207;-63
2022/02/12 08:20:25;;;;;;;8.40;3.25;;;1.60;99.90;;;;;;5014457;28;20664;-63
2022/02/12 08:22:52;;;;;;;7.28;3.50;;;1.60;99.90;;;;;;5013276;28;20238;-64
2022/02/12 08:25:20;;;;;;;10.35;5.18;;;1.80;99.90;;;;;;5013684;28;20210;-63
2022/02/12 08:27:48;;;;;;;4.35;3.30;;;1.90;99.90;;;;;;5012839;28;20207;-63
2022/02/12 08:30:15;;;;;;;10.30;3.60;;;2.10;99.90;;;;;;5013917;28;20227;-63
2022/02/12 08:32:43;;;;;;;10.40;4.28;;;2.20;99.90;;;;;;5013247;28;20222;-63
2022/02/12 08:35:11;;;;;;;6.70;2.83;;;2.40;99.90;;;;;;5013540;28;20203;-63
2022/02/12 08:37:41;;;;;;;9.32;3.33;;;2.60;99.90;;;;;;5013202;28;20207;-64
2022/02/12 08:40:10;;;;;;;5.65;3.55;;;2.90;99.90;;;;;;5013282;28;20221;-64
2022/02/12 08:42:41;;;;;;;4.70;2.95;;;3.10;99.90;;;;;;5013533;28;20238;-63
2022/02/12 08:45:09;;;;;;;7.28;2.95;;;3.40;99.90;;;;;;5014154;28;20191;-62
2022/02/12 08:47:36;;;;;;;6.22;3.15;;;3.50;99.90;;;;;;5013068;28;20210;-63
2022/02/12 08:50:05;;;;;;;6.25;3.20;;;3.60;99.90;;;;;;5013271;28;20222;-64
2022/02/12 08:52:32;;;;;;;9.18;3.17;;;3.60;99.90;;;;;;5013832;28;20227;-64
2022/02/12 08:54:59;;;;;;;6.18;3.35;;;3.60;99.90;;;;;;5015734;28;20230;-63
2022/02/12 08:57:26;;;;;;;6.40;2.92;;;3.60;99.90;;;;;;5017348;28;20206;-62
2022/02/12 08:59:55;;;;;;;5.00;2.88;;;3.60;99.90;;;;;;5018066;28;20557;-62
2022/02/12 09:02:22;;;;;;;3.22;2.30;;;3.60;99.90;;;;;;5017578;28;20227;-63
2022/02/12 09:04:49;;;;;;;7.38;3.10;;;3.70;99.90;;;;;;5020967;28;20207;-62
2022/02/12 09:07:16;;;;;;;5.22;2.55;;;3.70;99.90;;;;;;5017530;28;20203;-66
2022/02/12 09:09:44;;;;;;;4.47;2.78;;;3.70;99.90;;;;;;5017645;28;20222;-65
2022/02/12 09:12:12;;;;;;;6.43;2.60;;;3.80;99.90;;;;;;5018105;28;20227;-66
2022/02/12 09:14:40;;;;;;;5.63;2.40;;;3.80;99.90;;;;;;5017994;28;20199;-69
2022/02/12 09:17:09;;;;;;;5.47;2.40;;;3.90;99.90;;;;;;5018205;28;20803;-65
2022/02/12 09:19:36;;;;;;;5.72;3.10;;;3.90;99.90;;;;;;5019016;28;20207;-68
2022/02/12 09:22:03;;;;;;;9.38;3.55;;;4.00;99.90;;;;;;5019202;28;20242;-65
2022/02/12 09:24:30;;;;;;;5.35;2.38;;;4.10;99.90;;;;;;5020706;28;20229;-64
2022/02/12 09:26:57;;;;;;;6.07;2.38;;;4.20;99.90;;;;;;5020022;28;20668;-62
2022/02/12 09:29:24;;;;;;;6.55;2.50;;;4.30;99.90;;;;;;5020125;28;20226;-64
2022/02/12 09:31:52;;;;;;;4.70;2.15;;;4.30;99.90;;;;;;5020568;28;20596;-64
2022/02/12 09:34:20;;;;;;;4.30;2.38;;;4.40;99.90;;;;;;5021291;28;20218;-63
2022/02/12 09:36:47;;;;;;;18.80;2.95;;;4.40;99.90;;;;;;5021197;28;20215;-61
2022/02/12 09:39:16;;;;;;;6.33;2.60;;;4.50;99.90;;;;;;5018608;28;20434;-62
2022/02/12 09:41:45;;;;;;;10.23;2.75;;;4.60;99.90;;;;;;5021398;28;20843;-63
2022/02/12 09:44:12;;;;;;;5.68;2.28;;;4.60;99.90;;;;;;5018433;28;20221;-62
2022/02/12 09:47:07;;;;;;;5.10;2.17;;;4.70;99.90;;;;;;5017818;28;20203;-63
2022/02/12 09:49:40;;;;;;;6.95;3.45;;;4.70;99.90;;;;;;4973527;28;20215;-63
2022/02/12 09:52:10;;;;;;;4.88;2.33;;;4.80;99.90;;;;;;5016496;28;20637;-64
2022/02/12 09:54:38;;;;;;;3.95;2.80;;;4.90;99.90;;;;;;5017171;28;20222;-64
2022/02/12 09:57:07;;;;;;;5.22;1.90;;;4.90;99.50;;;;;;5017472;28;20203;-63
2022/02/12 09:59:34;;;;;;;5.32;2.60;;;5.00;99.00;;;;;;5019147;28;20210;-63
2022/02/12 10:02:01;;;;;;;8.60;2.30;;;5.10;98.40;;;;;;5018557;28;20230;-63
2022/02/12 10:04:29;;;;;;;9.20;3.55;;;5.20;98.00;;;;;;5017206;28;20199;-63
2022/02/12 10:06:57;;;;;;;6.20;2.55;;;5.20;97.50;;;;;;5016626;28;20601;-64
2022/02/12 10:09:24;;;;;;;7.40;2.85;;;5.20;97.10;;;;;;5017383;28;20223;-63
2022/02/12 10:11:54;;;;;;;8.75;2.58;;;5.30;96.90;;;;;;5016313;28;20231;-64
2022/02/12 10:14:26;;;;;;;8.18;2.40;;;5.30;96.60;;;;;;5016027;28;20206;-60
2022/02/12 10:16:58;;;;;;;4.35;2.28;;;5.30;96.40;;;;;;5016337;28;20188;-64
2022/02/12 10:19:33;;;;;;;5.18;2.33;;;5.30;96.20;;;;;;5016588;28;20283;-66
2022/02/12 10:22:07;;;;;;;4.15;2.08;;;5.30;96.10;;;;;;5043177;22;20235;-65
2022/02/12 10:24:52;;;;;;;7.28;1.88;;;5.30;95.90;;;;;;5035153;28;20191;-65
2022/02/12 10:27:21;;;;;;;5.63;2.00;;;5.30;95.70;;;;;;5035501;28;20206;-65
2022/02/12 10:29:49;;;;;;;10.15;2.30;;;5.30;95.50;;;;;;5036029;28;20229;-67
2022/02/12 10:32:17;;;;;;;4.53;2.60;;;5.30;95.10;;;;;;5034770;28;20682;-62
2022/02/12 10:34:45;;;;;;;5.88;2.20;;;5.40;94.80;;;;;;5034841;28;20210;-63
2022/02/12 10:37:16;;;;;;;5.07;2.50;;;5.40;94.80;;;;;;5035244;28;20202;-63
2022/02/12 10:39:52;;;;;;;9.07;3.13;;;5.50;94.40;;;;;;5034798;28;20183;-65
2022/02/12 10:42:19;;;;;;;8.20;3.60;;;5.60;94.00;;;;;;5035360;28;20248;-64
2022/02/12 10:44:47;;;;;;;9.23;2.60;;;5.70;93.90;;;;;;5035568;28;20229;-62
2022/02/12 10:47:14;;;;;;;8.55;3.85;;;5.70;93.90;;;;;;5034444;28;20207;-63
2022/02/12 10:49:42;;;;;;;6.93;2.67;;;5.70;94.10;;;;;;5034644;28;20245;-61
2022/02/12 10:52:10;;;;;;;6.47;2.35;;;5.80;94.20;;;;;;5034574;28;20233;-63
2022/02/12 10:54:42;;;;;;;6.60;2.80;;;5.80;94.20;;;;;;5034850;28;20206;-61
2022/02/12 10:57:10;;;;;;;3.80;2.22;;;5.80;93.70;;;;;;5037907;28;20213;-63
2022/02/12 10:59:42;;;;;;;6.25;2.83;;;5.80;93.70;;;;;;5034020;28;20206;-64
2022/02/12 11:02:11;;;;;;;7.13;2.83;;;5.80;93.80;;;;;;5034259;28;20357;-62
2022/02/12 11:04:40;;;;;;;4.88;2.22;;;5.90;93.70;;;;;;5034172;28;20229;-62
2022/02/12 11:07:08;;;;;;;7.07;2.60;;;6.00;93.80;;;;;;5033587;28;20678;-62
2022/02/12 11:09:37;;;;;;;6.15;2.92;;;6.00;93.50;;;;;;5034021;28;20231;-63
2022/02/12 11:12:07;;;;;;;5.55;2.80;;;6.00;92.90;;;;;;5033835;28;20230;-62
2022/02/12 11:14:36;;;;;;;8.60;2.50;;;6.00;93.20;;;;;;5034373;28;20553;-64
2022/02/12 11:17:07;;;;;;;5.40;3.50;;;6.00;93.10;;;;;;5033222;28;20206;-64
2022/02/12 11:19:37;;;;;;;6.10;3.45;;;6.00;92.90;;;;;;5033849;28;20182;-62
2022/02/12 11:22:05;;;;;;;6.00;2.33;;;6.00;93.00;;;;;;5033278;28;20264;-62
2022/02/12 11:24:38;;;;;;;6.07;2.70;;;6.10;93.00;;;;;;5033955;28;20193;-63
2022/02/12 11:27:18;;;;;;;7.40;2.97;;;6.10;91.90;;;;;;5033731;28;20229;-63
2022/02/12 11:29:46;;;;;;;5.82;2.63;;;6.10;91.80;;;;;;5033274;28;20213;-63
2022/02/12 11:32:15;;;;;;;5.93;3.05;;;6.10;91.80;;;;;;5033639;28;20251;-63
2022/02/12 11:34:44;;;;;;;6.82;2.42;;;6.20;91.60;;;;;;5033511;28;20697;-63
2022/02/12 11:37:16;;;;;;;5.03;2.70;;;6.30;91.50;;;;;;5033205;28;20202;-63
2022/02/12 11:40:08;;;;;;;9.98;2.22;;;6.40;91.30;;;;;;5033075;28;20205;-63
2022/02/12 11:42:45;;;;;;;6.57;2.00;;;6.50;90.70;;;;;;5033008;28;20219;-62
2022/02/12 11:45:29;;;;;;;3.72;1.92;;;6.50;88.70;;;;;;5033207;28;20210;-63
2022/02/12 11:48:28;;;;;;;4.35;2.40;;;6.50;87.20;;;;;;5033049;28;20278;-62
2022/02/12 11:50:56;;;;;;;6.10;2.67;;;6.40;85.10;;;;;;5032845;28;20214;-63
2022/02/12 11:53:43;;;;;;;7.25;2.65;;;6.40;84.20;;;;;;5032883;28;20628;-62
2022/02/12 11:56:32;;;;;;;3.35;1.60;;;6.40;83.80;;;;;;5033279;28;20197;-63
2022/02/12 11:59:01;;;;;;;6.82;3.08;;;6.50;83.50;;;;;;5033827;28;20210;-63
2022/02/12 12:01:48;;;;;;;12.13;2.58;;;6.40;81.90;;;;;;5033258;28;20206;-63
2022/02/12 12:04:18;;;;;;;5.53;2.60;;;6.50;81.60;;;;;;5032892;28;20615;-61
2022/02/12 12:07:09;;;;;;;9.18;2.28;;;6.60;81.20;;;;;;5034238;28;20202;-63
2022/02/12 12:09:37;;;;;;;4.22;2.53;;;6.60;80.70;;;;;;5033121;28;20236;-63
2022/02/12 12:12:20;;;;;;;7.20;2.00;;;6.60;79.00;;;;;;5032937;28;20218;-63
2022/02/12 12:14:49;;;;;;;4.60;1.90;;;6.60;78.00;;;;;;5033117;28;20608;-62
2022/02/12 12:17:18;;;;;;;5.00;2.20;;;6.60;74.30;;;;;;5032859;28;20214;-63
2022/02/12 12:19:53;;;;;;;6.35;2.20;;;6.50;72.30;;;;;;5032687;28;20248;-63
2022/02/12 12:22:21;;;;;;;7.38;2.03;;;6.40;72.10;;;;;;5033049;28;20225;-64
2022/02/12 12:24:50;;;;;;;6.15;1.88;;;6.40;71.00;;;;;;5032943;28;20690;-64
2022/02/12 12:27:18;;;;;;;3.75;2.00;;;6.40;71.20;;;;;;5033127;28;20305;-63
2022/02/12 12:32:34;;;;;;;3.15;1.90;;;6.40;67.40;;;;;;5036854;28;20696;-63
2022/02/12 12:35:04;;;;;;;4.43;1.98;;;6.30;65.80;;;;;;5037754;28;20230;-63
2022/02/12 12:37:38;;;;;;;3.65;1.70;;;6.20;66.80;;;;;;5036479;28;20249;-62
2022/02/12 12:40:07;;;;;;;5.57;1.60;;;6.30;68.00;;;;;;5036436;28;20186;-62
2022/02/12 12:42:34;;;;;;;4.20;2.10;;;6.40;68.90;;;;;;5036414;28;20222;-62
2022/02/12 12:45:06;;;;;;;3.92;2.15;;;6.40;68.70;;;;;;5036438;28;20202;-64
2022/02/12 12:47:35;;;;;;;5.38;2.63;;;6.50;68.40;;;;;;5036449;28;20189;-64
2022/02/12 12:50:03;;;;;;;7.53;1.85;;;6.50;68.30;;;;;;5036604;28;20284;-62
2022/02/12 12:52:32;;;;;;;3.72;1.67;;;6.60;68.40;;;;;;5036730;28;20229;-62
2022/02/12 12:55:07;;;;;;;6.15;1.77;;;6.70;68.40;;;;;;5036270;28;20202;-62
2022/02/12 12:57:39;;;;;;;6.13;2.75;;;6.90;68.10;;;;;;5036349;28;20340;-62
2022/02/12 13:00:08;;;;;;;6.40;2.17;;;6.90;68.10;;;;;;5036465;28;20213;-61
2022/02/12 13:02:46;;;;;;;7.90;2.78;;;6.90;68.10;;;;;;5036119;28;20223;-63
2022/02/12 13:05:13;;;;;;;4.32;1.80;;;7.00;68.20;;;;;;5037008;28;20194;-62
2022/02/12 13:07:40;;;;;;;6.72;1.90;;;6.90;66.50;;;;;;5036403;28;20209;-64
2022/02/12 13:10:09;;;;;;;6.25;2.30;;;6.90;66.10;;;;;;5036446;28;20234;-62